sensor_id;sensor_type;location;lat;lon;timestamp;temperature;humidity
5394;DHT22;2720;52.396;10.064;2023-05-10T01:11:38;11.80;99.90
5394;DHT22;2720;52.396;10.064;2023-05-10T01:15:23;11.70;99.90
5394;DHT22;2720;52.396;10.064;2023-05-10T01:21:46;11.80;99.90
5394;DHT22;2720;52.396;10.064;2023-05-10T01:49:20;11.70;99.90
5394;DHT22;2720;52.396;10.064;2023-05-10T01:55:49;11.70;99.90
5394;DHT22;2720;52.396;10.064;2023-05-10T02:05:19;11.60;99.90
5394;DHT22;2720;52.396;10.064;2023-05-10T02:08:42;11.60;99.90
5394;DHT22;2720;52.396;10.064;2023-05-10T02:11:46;11.60;99.90
5394;DHT22;2720;52.396;10.064;2023-05-10T02:15:15;11.60;99.90
5394;DHT22;2720;52.396;10.064;2023-05-10T02:39:22;11.50;99.90
5394;DHT22;2720;52.396;10.064;2023-05-10T02:41:50;11.30;99.90
5394;DHT22;2720;52.396;10.064;2023-05-10T02:44:19;11.40;99.90
5394;DHT22;2720;52.396;10.064;2023-05-10T02:49:14;11.60;99.90
5394;DHT22;2720;52.396;10.064;2023-05-10T02:51:44;11.30;99.90
5394;DHT22;2720;52.396;10.064;2023-05-10T02:54:19;11.40;99.90
5394;DHT22;2720;52.396;10.064;2023-05-10T02:56:52;11.30;99.90
5394;DHT22;2720;52.396;10.064;2023-05-10T03:01:47;11.30;99.90
5394;DHT22;2720;52.396;10.064;2023-05-10T03:09:09;10.80;99.90
5394;DHT22;2720;52.396;10.064;2023-05-10T03:19:30;11.20;99.90
5394;DHT22;2720;52.396;10.064;2023-05-10T03:22:02;11.20;99.90
5394;DHT22;2720;52.396;10.064;2023-05-10T03:24:30;11.10;99.90
5394;DHT22;2720;52.396;10.064;2023-05-10T03:27:00;11.10;99.90
5394;DHT22;2720;52.396;10.064;2023-05-10T03:29:30;11.30;99.90
5394;DHT22;2720;52.396;10.064;2023-05-10T03:31:58;11.10;99.90
5394;DHT22;2720;52.396;10.064;2023-05-10T03:34:26;11.20;99.90
5394;DHT22;2720;52.396;10.064;2023-05-10T03:39:20;11.30;99.90
5394;DHT22;2720;52.396;10.064;2023-05-10T03:41:47;11.40;99.90
5394;DHT22;2720;52.396;10.064;2023-05-10T03:44:14;11.30;99.90
5394;DHT22;2720;52.396;10.064;2023-05-10T03:46:43;11.40;99.90
5394;DHT22;2720;52.396;10.064;2023-05-10T03:49:10;11.40;99.90
5394;DHT22;2720;52.396;10.064;2023-05-10T03:51:37;11.40;99.90
5394;DHT22;2720;52.396;10.064;2023-05-10T03:54:04;11.40;99.90
5394;DHT22;2720;52.396;10.064;2023-05-10T03:56:31;11.40;99.90
5394;DHT22;2720;52.396;10.064;2023-05-10T03:58:58;11.40;99.90
5394;DHT22;2720;52.396;10.064;2023-05-10T04:03:53;11.50;99.90
5394;DHT22;2720;52.396;10.064;2023-05-10T04:06:20;11.40;99.90
5394;DHT22;2720;52.396;10.064;2023-05-10T04:08:47;11.50;99.90
5394;DHT22;2720;52.396;10.064;2023-05-10T04:11:14;11.50;99.90
5394;DHT22;2720;52.396;10.064;2023-05-10T04:13:41;11.60;99.90
5394;DHT22;2720;52.396;10.064;2023-05-10T04:16:09;11.50;99.90
5394;DHT22;2720;52.396;10.064;2023-05-10T04:18:36;11.60;99.90
5394;DHT22;2720;52.396;10.064;2023-05-10T04:21:04;11.50;99.90
5394;DHT22;2720;52.396;10.064;2023-05-10T04:23:31;11.60;99.90
5394;DHT22;2720;52.396;10.064;2023-05-10T04:26:01;11.50;99.90
5394;DHT22;2720;52.396;10.064;2023-05-10T04:28:28;11.50;99.90
5394;DHT22;2720;52.396;10.064;2023-05-10T04:31:01;11.60;99.90
5394;DHT22;2720;52.396;10.064;2023-05-10T04:33:28;11.60;99.90
5394;DHT22;2720;52.396;10.064;2023-05-10T04:35:55;12.00;99.90
5394;DHT22;2720;52.396;10.064;2023-05-10T04:38:23;11.60;99.90
5394;DHT22;2720;52.396;10.064;2023-05-10T04:40:50;11.90;99.90
5394;DHT22;2720;52.396;10.064;2023-05-10T04:43:17;11.70;99.90
5394;DHT22;2720;52.396;10.064;2023-05-10T04:45:44;11.30;99.90
5394;DHT22;2720;52.396;10.064;2023-05-10T04:48:11;11.40;99.90
5394;DHT22;2720;52.396;10.064;2023-05-10T04:50:39;11.40;99.90
5394;DHT22;2720;52.396;10.064;2023-05-10T04:53:06;11.40;99.90
5394;DHT22;2720;52.396;10.064;2023-05-10T04:55:34;11.40;99.90
5394;DHT22;2720;52.396;10.064;2023-05-10T04:58:02;11.10;99.90
5394;DHT22;2720;52.396;10.064;2023-05-10T05:02:56;11.20;99.90
5394;DHT22;2720;52.396;10.064;2023-05-10T05:07:50;11.20;99.90
5394;DHT22;2720;52.396;10.064;2023-05-10T05:10:17;11.20;99.90
5394;DHT22;2720;52.396;10.064;2023-05-10T05:12:46;11.00;99.90
5394;DHT22;2720;52.396;10.064;2023-05-10T05:15:13;11.30;99.90
5394;DHT22;2720;52.396;10.064;2023-05-10T05:17:42;11.20;99.90
5394;DHT22;2720;52.396;10.064;2023-05-10T05:20:10;11.20;99.90
5394;DHT22;2720;52.396;10.064;2023-05-10T05:25:05;11.20;99.90
5394;DHT22;2720;52.396;10.064;2023-05-10T05:27:33;11.20;99.90
5394;DHT22;2720;52.396;10.064;2023-05-10T05:30:01;11.20;99.90
5394;DHT22;2720;52.396;10.064;2023-05-10T05:32:28;11.30;99.90
5394;DHT22;2720;52.396;10.064;2023-05-10T05:34:55;11.30;99.90
5394;DHT22;2720;52.396;10.064;2023-05-10T05:37:22;11.40;99.90
5394;DHT22;2720;52.396;10.064;2023-05-10T05:39:50;11.30;99.90
5394;DHT22;2720;52.396;10.064;2023-05-10T05:44:44;11.50;99.90
5394;DHT22;2720;52.396;10.064;2023-05-10T05:47:12;11.40;99.90
5394;DHT22;2720;52.396;10.064;2023-05-10T05:57:01;11.60;99.90
5394;DHT22;2720;52.396;10.064;2023-05-10T05:59:28;11.50;99.90
5394;DHT22;2720;52.396;10.064;2023-05-10T06:01:55;12.10;99.90
5394;DHT22;2720;52.396;10.064;2023-05-10T06:04:23;12.20;99.90
5394;DHT22;2720;52.396;10.064;2023-05-10T06:06:50;12.20;99.90
5394;DHT22;2720;52.396;10.064;2023-05-10T06:09:17;12.00;99.90
5394;DHT22;2720;52.396;10.064;2023-05-10T06:11:44;12.20;99.90
5394;DHT22;2720;52.396;10.064;2023-05-10T06:16:39;12.20;99.90
5394;DHT22;2720;52.396;10.064;2023-05-10T06:19:06;12.20;99.90
5394;DHT22;2720;52.396;10.064;2023-05-10T06:21:34;12.10;99.90
5394;DHT22;2720;52.396;10.064;2023-05-10T06:24:01;12.30;99.90
5394;DHT22;2720;52.396;10.064;2023-05-10T06:26:28;12.70;99.90
5394;DHT22;2720;52.396;10.064;2023-05-10T06:31:22;12.90;99.90
5394;DHT22;2720;52.396;10.064;2023-05-10T06:33:49;13.00;99.90
5394;DHT22;2720;52.396;10.064;2023-05-10T06:36:16;13.00;99.90
5394;DHT22;2720;52.396;10.064;2023-05-10T06:38:44;13.30;99.90
5394;DHT22;2720;52.396;10.064;2023-05-10T06:41:11;13.60;99.90
5394;DHT22;2720;52.396;10.064;2023-05-10T06:43:38;13.60;99.90
5394;DHT22;2720;52.396;10.064;2023-05-10T06:46:06;13.70;99.90
5394;DHT22;2720;52.396;10.064;2023-05-10T06:51:01;13.80;99.90
5394;DHT22;2720;52.396;10.064;2023-05-10T06:53:28;13.70;99.90
5394;DHT22;2720;52.396;10.064;2023-05-10T06:55:56;14.00;99.90
5394;DHT22;2720;52.396;10.064;2023-05-10T06:58:23;14.00;99.90
5394;DHT22;2720;52.396;10.064;2023-05-10T07:03:17;14.10;99.90
5394;DHT22;2720;52.396;10.064;2023-05-10T07:08:12;13.90;99.90
5394;DHT22;2720;52.396;10.064;2023-05-10T07:10:40;13.90;99.90
5394;DHT22;2720;52.396;10.064;2023-05-10T07:13:08;13.90;99.90
5394;DHT22;2720;52.396;10.064;2023-05-10T07:15:36;13.70;99.90
5394;DHT22;2720;52.396;10.064;2023-05-10T07:18:03;13.70;99.90
5394;DHT22;2720;52.396;10.064;2023-05-10T07:20:31;13.70;99.90
5394;DHT22;2720;52.396;10.064;2023-05-10T07:22:59;13.60;99.90
5394;DHT22;2720;52.396;10.064;2023-05-10T07:25:25;13.60;99.90
5394;DHT22;2720;52.396;10.064;2023-05-10T07:27:52;13.50;99.90
5394;DHT22;2720;52.396;10.064;2023-05-10T07:30:21;13.50;99.90
5394;DHT22;2720;52.396;10.064;2023-05-10T07:32:48;13.30;99.90
5394;DHT22;2720;52.396;10.064;2023-05-10T07:35:15;13.50;99.90
5394;DHT22;2720;52.396;10.064;2023-05-10T07:37:42;13.60;99.90
5394;DHT22;2720;52.396;10.064;2023-05-10T07:40:09;13.70;99.90
5394;DHT22;2720;52.396;10.064;2023-05-10T07:42:36;14.30;99.90
5394;DHT22;2720;52.396;10.064;2023-05-10T07:45:04;14.20;99.90
5394;DHT22;2720;52.396;10.064;2023-05-10T07:47:33;14.70;99.90
5394;DHT22;2720;52.396;10.064;2023-05-10T07:50:00;14.60;99.90
5394;DHT22;2720;52.396;10.064;2023-05-10T07:52:27;14.90;99.90
5394;DHT22;2720;52.396;10.064;2023-05-10T07:54:54;14.80;99.90
5394;DHT22;2720;52.396;10.064;2023-05-10T07:57:22;14.70;99.90
5394;DHT22;2720;52.396;10.064;2023-05-10T07:59:49;14.30;99.90
5394;DHT22;2720;52.396;10.064;2023-05-10T08:02:16;14.70;99.90
5394;DHT22;2720;52.396;10.064;2023-05-10T08:04:44;14.70;99.90
5394;DHT22;2720;52.396;10.064;2023-05-10T08:07:11;15.20;99.90
5394;DHT22;2720;52.396;10.064;2023-05-10T08:12:06;14.30;99.90
5394;DHT22;2720;52.396;10.064;2023-05-10T08:14:33;14.70;99.90
5394;DHT22;2720;52.396;10.064;2023-05-10T08:19:29;14.40;99.90
5394;DHT22;2720;52.396;10.064;2023-05-10T08:21:57;14.40;99.90
5394;DHT22;2720;52.396;10.064;2023-05-10T08:24:24;14.30;99.90
5394;DHT22;2720;52.396;10.064;2023-05-10T08:26:51;14.60;99.90
5394;DHT22;2720;52.396;10.064;2023-05-10T08:29:18;14.20;99.90
5394;DHT22;2720;52.396;10.064;2023-05-10T08:31:45;14.10;99.90
5394;DHT22;2720;52.396;10.064;2023-05-10T08:34:12;14.20;99.90
5394;DHT22;2720;52.396;10.064;2023-05-10T08:39:07;14.10;99.90
5394;DHT22;2720;52.396;10.064;2023-05-10T08:41:35;14.10;99.90
5394;DHT22;2720;52.396;10.064;2023-05-10T08:44:08;14.10;99.90
5394;DHT22;2720;52.396;10.064;2023-05-10T08:46:37;14.30;99.90
5394;DHT22;2720;52.396;10.064;2023-05-10T08:49:06;14.00;99.90
5394;DHT22;2720;52.396;10.064;2023-05-10T08:51:36;14.00;99.90
5394;DHT22;2720;52.396;10.064;2023-05-10T08:54:08;14.00;99.90
5394;DHT22;2720;52.396;10.064;2023-05-10T08:56:35;14.20;99.90
5394;DHT22;2720;52.396;10.064;2023-05-10T08:59:02;14.20;99.90
5394;DHT22;2720;52.396;10.064;2023-05-10T09:01:31;14.30;99.90
5394;DHT22;2720;52.396;10.064;2023-05-10T09:03:59;14.40;99.90
5394;DHT22;2720;52.396;10.064;2023-05-10T09:06:26;14.50;99.90
5394;DHT22;2720;52.396;10.064;2023-05-10T09:08:54;14.60;99.90
5394;DHT22;2720;52.396;10.064;2023-05-10T09:11:22;14.70;99.90
5394;DHT22;2720;52.396;10.064;2023-05-10T09:13:51;14.90;99.90
5394;DHT22;2720;52.396;10.064;2023-05-10T09:16:18;15.10;99.90
5394;DHT22;2720;52.396;10.064;2023-05-10T09:18:46;15.30;99.90
5394;DHT22;2720;52.396;10.064;2023-05-10T09:21:13;15.30;99.90
5394;DHT22;2720;52.396;10.064;2023-05-10T09:23:42;15.30;99.90
5394;DHT22;2720;52.396;10.064;2023-05-10T09:26:09;15.30;99.90
5394;DHT22;2720;52.396;10.064;2023-05-10T09:28:51;15.40;99.90
5394;DHT22;2720;52.396;10.064;2023-05-10T09:31:18;15.40;99.90
5394;DHT22;2720;52.396;10.064;2023-05-10T09:33:46;15.40;99.90
5394;DHT22;2720;52.396;10.064;2023-05-10T09:36:14;15.40;99.90
5394;DHT22;2720;52.396;10.064;2023-05-10T09:38:48;15.60;99.90
5394;DHT22;2720;52.396;10.064;2023-05-10T09:41:16;15.80;99.90
5394;DHT22;2720;52.396;10.064;2023-05-10T09:43:45;15.80;99.90
5394;DHT22;2720;52.396;10.064;2023-05-10T09:46:12;15.60;99.90
5394;DHT22;2720;52.396;10.064;2023-05-10T09:48:42;15.30;99.90
5394;DHT22;2720;52.396;10.064;2023-05-10T09:51:09;15.20;99.90
5394;DHT22;2720;52.396;10.064;2023-05-10T09:53:36;15.00;99.90
5394;DHT22;2720;52.396;10.064;2023-05-10T09:56:04;14.90;99.90
5394;DHT22;2720;52.396;10.064;2023-05-10T09:58:31;14.80;99.90
5394;DHT22;2720;52.396;10.064;2023-05-10T10:01:01;14.70;99.90
5394;DHT22;2720;52.396;10.064;2023-05-10T10:03:28;14.50;99.90
5394;DHT22;2720;52.396;10.064;2023-05-10T10:05:56;14.30;99.90
5394;DHT22;2720;52.396;10.064;2023-05-10T10:08:24;14.30;99.90
5394;DHT22;2720;52.396;10.064;2023-05-10T10:10:51;14.30;99.90
5394;DHT22;2720;52.396;10.064;2023-05-10T10:13:18;14.20;99.90
5394;DHT22;2720;52.396;10.064;2023-05-10T10:15:45;14.30;99.90
5394;DHT22;2720;52.396;10.064;2023-05-10T10:18:17;14.30;99.90
5394;DHT22;2720;52.396;10.064;2023-05-10T10:20:49;14.30;99.90
5394;DHT22;2720;52.396;10.064;2023-05-10T10:23:16;14.30;99.90
5394;DHT22;2720;52.396;10.064;2023-05-10T10:25:43;14.40;99.90
5394;DHT22;2720;52.396;10.064;2023-05-10T10:28:24;14.70;99.90
5394;DHT22;2720;52.396;10.064;2023-05-10T10:30:55;14.70;99.90
5394;DHT22;2720;52.396;10.064;2023-05-10T10:33:57;14.90;99.90
5394;DHT22;2720;52.396;10.064;2023-05-10T10:36:26;15.10;99.90
5394;DHT22;2720;52.396;10.064;2023-05-10T10:38:58;15.40;99.90
5394;DHT22;2720;52.396;10.064;2023-05-10T10:41:30;15.60;99.90
5394;DHT22;2720;52.396;10.064;2023-05-10T10:44:22;15.70;99.90
5394;DHT22;2720;52.396;10.064;2023-05-10T10:47:09;16.00;99.90
5394;DHT22;2720;52.396;10.064;2023-05-10T10:49:49;16.10;99.90
5394;DHT22;2720;52.396;10.064;2023-05-10T10:52:24;16.20;99.90
5394;DHT22;2720;52.396;10.064;2023-05-10T10:54:59;16.40;99.90
5394;DHT22;2720;52.396;10.064;2023-05-10T10:57:26;16.60;99.90
5394;DHT22;2720;52.396;10.064;2023-05-10T11:00:26;16.80;99.90
5394;DHT22;2720;52.396;10.064;2023-05-10T11:02:56;16.70;99.90
5394;DHT22;2720;52.396;10.064;2023-05-10T11:05:45;16.70;99.90
5394;DHT22;2720;52.396;10.064;2023-05-10T11:08:14;16.90;99.90
5394;DHT22;2720;52.396;10.064;2023-05-10T11:10:51;17.10;99.90
5394;DHT22;2720;52.396;10.064;2023-05-10T11:13:27;17.20;99.90
5394;DHT22;2720;52.396;10.064;2023-05-10T11:15:55;17.40;99.90
5394;DHT22;2720;52.396;10.064;2023-05-10T11:18:24;17.90;99.90
5394;DHT22;2720;52.396;10.064;2023-05-10T11:20:57;17.80;99.90
5394;DHT22;2720;52.396;10.064;2023-05-10T11:23:30;18.40;99.90
5394;DHT22;2720;52.396;10.064;2023-05-10T11:25:57;18.20;99.90
5394;DHT22;2720;52.396;10.064;2023-05-10T11:28:26;18.20;99.90
5394;DHT22;2720;52.396;10.064;2023-05-10T11:30:53;18.20;99.90
5394;DHT22;2720;52.396;10.064;2023-05-10T11:33:21;18.50;99.90
5394;DHT22;2720;52.396;10.064;2023-05-10T11:35:48;18.20;99.90
5394;DHT22;2720;52.396;10.064;2023-05-10T11:38:16;18.30;99.90
5394;DHT22;2720;52.396;10.064;2023-05-10T11:40:43;18.60;99.90
5394;DHT22;2720;52.396;10.064;2023-05-10T11:43:10;18.60;99.90
5394;DHT22;2720;52.396;10.064;2023-05-10T11:45:38;18.80;99.90
5394;DHT22;2720;52.396;10.064;2023-05-10T11:48:06;19.10;99.90
5394;DHT22;2720;52.396;10.064;2023-05-10T11:50:34;19.00;99.90
5394;DHT22;2720;52.396;10.064;2023-05-10T11:55:29;19.30;99.90
5394;DHT22;2720;52.396;10.064;2023-05-10T11:58:01;19.40;99.90
5394;DHT22;2720;52.396;10.064;2023-05-10T12:00:28;19.50;99.90
5394;DHT22;2720;52.396;10.064;2023-05-10T12:02:56;19.50;99.90
5394;DHT22;2720;52.396;10.064;2023-05-10T12:05:24;20.00;99.90
5394;DHT22;2720;52.396;10.064;2023-05-10T12:07:51;20.10;99.90
5394;DHT22;2720;52.396;10.064;2023-05-10T12:10:25;20.40;99.90
5394;DHT22;2720;52.396;10.064;2023-05-10T12:12:53;20.60;99.90
5394;DHT22;2720;52.396;10.064;2023-05-10T12:15:22;20.60;99.90
5394;DHT22;2720;52.396;10.064;2023-05-10T12:17:50;21.00;99.90
5394;DHT22;2720;52.396;10.064;2023-05-10T12:20:19;21.00;99.90
5394;DHT22;2720;52.396;10.064;2023-05-10T12:22:49;20.80;99.90
5394;DHT22;2720;52.396;10.064;2023-05-10T12:25:16;20.80;99.90
5394;DHT22;2720;52.396;10.064;2023-05-10T12:27:53;21.00;99.90
5394;DHT22;2720;52.396;10.064;2023-05-10T12:30:21;21.10;99.90
5394;DHT22;2720;52.396;10.064;2023-05-10T12:32:49;21.00;99.90
5394;DHT22;2720;52.396;10.064;2023-05-10T12:35:16;21.40;99.90
5394;DHT22;2720;52.396;10.064;2023-05-10T12:37:46;21.40;99.90
5394;DHT22;2720;52.396;10.064;2023-05-10T12:40:13;21.70;99.90
5394;DHT22;2720;52.396;10.064;2023-05-10T12:42:40;21.70;99.90
5394;DHT22;2720;52.396;10.064;2023-05-10T12:45:10;21.60;99.90
5394;DHT22;2720;52.396;10.064;2023-05-10T12:47:37;22.00;99.90
5394;DHT22;2720;52.396;10.064;2023-05-10T12:50:05;21.90;99.90
5394;DHT22;2720;52.396;10.064;2023-05-10T12:52:32;21.90;99.90
5394;DHT22;2720;52.396;10.064;2023-05-10T12:54:59;22.10;99.90
5394;DHT22;2720;52.396;10.064;2023-05-10T12:57:27;22.10;99.90
5394;DHT22;2720;52.396;10.064;2023-05-10T12:59:54;22.40;99.90
5394;DHT22;2720;52.396;10.064;2023-05-10T13:02:23;22.20;99.90
5394;DHT22;2720;52.396;10.064;2023-05-10T13:04:50;22.40;99.90
5394;DHT22;2720;52.396;10.064;2023-05-10T13:07:17;22.70;99.90
5394;DHT22;2720;52.396;10.064;2023-05-10T13:09:44;22.70;99.90
5394;DHT22;2720;52.396;10.064;2023-05-10T13:12:11;22.90;99.90
5394;DHT22;2720;52.396;10.064;2023-05-10T13:14:38;22.60;99.90
5394;DHT22;2720;52.396;10.064;2023-05-10T13:17:06;22.20;99.90
5394;DHT22;2720;52.396;10.064;2023-05-10T13:19:35;21.70;99.90
5394;DHT22;2720;52.396;10.064;2023-05-10T13:22:03;21.20;99.90
5394;DHT22;2720;52.396;10.064;2023-05-10T13:24:30;20.70;99.90
5394;DHT22;2720;52.396;10.064;2023-05-10T13:26:58;21.40;99.90
5394;DHT22;2720;52.396;10.064;2023-05-10T13:29:25;20.80;99.90
5394;DHT22;2720;52.396;10.064;2023-05-10T13:31:52;20.90;99.90
5394;DHT22;2720;52.396;10.064;2023-05-10T13:34:19;20.90;99.90
5394;DHT22;2720;52.396;10.064;2023-05-10T13:36:48;20.90;99.90
5394;DHT22;2720;52.396;10.064;2023-05-10T13:39:15;20.80;99.90
5394;DHT22;2720;52.396;10.064;2023-05-10T13:41:42;20.90;99.90
5394;DHT22;2720;52.396;10.064;2023-05-10T13:44:11;20.60;99.90
5394;DHT22;2720;52.396;10.064;2023-05-10T13:46:38;20.60;99.90
5394;DHT22;2720;52.396;10.064;2023-05-10T13:49:05;20.30;99.90
5394;DHT22;2720;52.396;10.064;2023-05-10T13:51:33;20.20;99.90
5394;DHT22;2720;52.396;10.064;2023-05-10T13:54:02;20.10;99.90
5394;DHT22;2720;52.396;10.064;2023-05-10T13:56:29;20.20;99.90
5394;DHT22;2720;52.396;10.064;2023-05-10T13:58:57;20.30;99.90
5394;DHT22;2720;52.396;10.064;2023-05-10T14:03:51;21.00;99.90
5394;DHT22;2720;52.396;10.064;2023-05-10T14:06:18;20.90;99.90
5394;DHT22;2720;52.396;10.064;2023-05-10T14:08:45;21.30;99.90
5394;DHT22;2720;52.396;10.064;2023-05-10T14:11:13;21.20;99.90
5394;DHT22;2720;52.396;10.064;2023-05-10T14:13:40;21.30;99.90
5394;DHT22;2720;52.396;10.064;2023-05-10T14:16:07;21.40;99.90
5394;DHT22;2720;52.396;10.064;2023-05-10T14:18:34;21.20;99.90
5394;DHT22;2720;52.396;10.064;2023-05-10T14:21:02;20.90;99.90
5394;DHT22;2720;52.396;10.064;2023-05-10T14:23:29;20.90;99.90
5394;DHT22;2720;52.396;10.064;2023-05-10T14:28:25;20.80;99.90
5394;DHT22;2720;52.396;10.064;2023-05-10T14:30:52;20.90;99.90
5394;DHT22;2720;52.396;10.064;2023-05-10T14:33:19;20.90;99.90
5394;DHT22;2720;52.396;10.064;2023-05-10T14:35:46;20.60;99.90
5394;DHT22;2720;52.396;10.064;2023-05-10T14:38:13;20.90;99.90
5394;DHT22;2720;52.396;10.064;2023-05-10T14:40:41;20.90;99.90
5394;DHT22;2720;52.396;10.064;2023-05-10T14:43:08;20.80;99.90
5394;DHT22;2720;52.396;10.064;2023-05-10T14:45:37;20.80;99.90
5394;DHT22;2720;52.396;10.064;2023-05-10T14:48:04;20.60;99.90
5394;DHT22;2720;52.396;10.064;2023-05-10T14:50:31;20.60;99.90
5394;DHT22;2720;52.396;10.064;2023-05-10T14:52:58;20.20;99.90
5394;DHT22;2720;52.396;10.064;2023-05-10T14:55:25;19.10;99.90
5394;DHT22;2720;52.396;10.064;2023-05-10T14:57:52;18.30;99.90
5394;DHT22;2720;52.396;10.064;2023-05-10T15:00:20;17.40;99.90
5394;DHT22;2720;52.396;10.064;2023-05-10T15:02:49;16.60;99.90
5394;DHT22;2720;52.396;10.064;2023-05-10T15:05:16;16.70;99.90
5394;DHT22;2720;52.396;10.064;2023-05-10T15:07:43;16.50;99.90
5394;DHT22;2720;52.396;10.064;2023-05-10T15:10:10;15.50;99.90
5394;DHT22;2720;52.396;10.064;2023-05-10T15:12:37;15.00;99.90
5394;DHT22;2720;52.396;10.064;2023-05-10T15:15:05;15.10;99.90
5394;DHT22;2720;52.396;10.064;2023-05-10T15:17:33;14.80;99.90
5394;DHT22;2720;52.396;10.064;2023-05-10T15:20:01;14.80;99.90
5394;DHT22;2720;52.396;10.064;2023-05-10T15:22:30;14.60;99.90
5394;DHT22;2720;52.396;10.064;2023-05-10T15:24:57;14.40;99.90
5394;DHT22;2720;52.396;10.064;2023-05-10T15:27:24;14.00;99.90
5394;DHT22;2720;52.396;10.064;2023-05-10T15:29:51;13.90;99.90
5394;DHT22;2720;52.396;10.064;2023-05-10T15:32:18;13.80;99.90
5394;DHT22;2720;52.396;10.064;2023-05-10T15:34:45;13.70;99.90
5394;DHT22;2720;52.396;10.064;2023-05-10T15:37:14;13.40;99.90
5394;DHT22;2720;52.396;10.064;2023-05-10T15:42:08;13.50;99.90
5394;DHT22;2720;52.396;10.064;2023-05-10T15:44:35;13.30;99.90
5394;DHT22;2720;52.396;10.064;2023-05-10T15:47:04;13.50;99.90
5394;DHT22;2720;52.396;10.064;2023-05-10T15:49:31;13.50;99.90
5394;DHT22;2720;52.396;10.064;2023-05-10T15:51:58;13.60;99.90
5394;DHT22;2720;52.396;10.064;2023-05-10T15:54:26;13.30;99.90
5394;DHT22;2720;52.396;10.064;2023-05-10T15:56:53;13.60;99.90
5394;DHT22;2720;52.396;10.064;2023-05-10T15:59:20;13.80;99.90
5394;DHT22;2720;52.396;10.064;2023-05-10T16:01:47;13.30;99.90
5394;DHT22;2720;52.396;10.064;2023-05-10T16:06:42;13.60;99.90
5394;DHT22;2720;52.396;10.064;2023-05-10T16:09:09;13.60;99.90
5394;DHT22;2720;52.396;10.064;2023-05-10T16:11:38;13.70;99.90
5394;DHT22;2720;52.396;10.064;2023-05-10T16:14:05;13.60;99.90
5394;DHT22;2720;52.396;10.064;2023-05-10T16:16:32;13.60;99.90
5394;DHT22;2720;52.396;10.064;2023-05-10T16:18:58;13.60;99.90
5394;DHT22;2720;52.396;10.064;2023-05-10T16:21:29;13.60;99.90
5394;DHT22;2720;52.396;10.064;2023-05-10T16:23:56;13.80;99.90
5394;DHT22;2720;52.396;10.064;2023-05-10T16:26:23;13.20;99.90
5394;DHT22;2720;52.396;10.064;2023-05-10T16:28:51;13.70;99.90
5394;DHT22;2720;52.396;10.064;2023-05-10T16:31:18;13.80;99.90
5394;DHT22;2720;52.396;10.064;2023-05-10T16:36:12;14.10;99.90
5394;DHT22;2720;52.396;10.064;2023-05-10T16:38:39;14.10;99.90
5394;DHT22;2720;52.396;10.064;2023-05-10T16:41:06;14.10;99.90
5394;DHT22;2720;52.396;10.064;2023-05-10T16:43:33;14.20;99.90
5394;DHT22;2720;52.396;10.064;2023-05-10T16:46:06;14.20;99.90
5394;DHT22;2720;52.396;10.064;2023-05-10T16:48:35;14.30;99.90
5394;DHT22;2720;52.396;10.064;2023-05-10T16:51:02;14.30;99.90
5394;DHT22;2720;52.396;10.064;2023-05-10T16:53:30;14.20;99.90
5394;DHT22;2720;52.396;10.064;2023-05-10T16:55:57;14.20;99.90
5394;DHT22;2720;52.396;10.064;2023-05-10T16:58:24;14.20;99.90
5394;DHT22;2720;52.396;10.064;2023-05-10T17:00:51;14.20;99.90
5394;DHT22;2720;52.396;10.064;2023-05-10T17:03:19;14.20;99.90
5394;DHT22;2720;52.396;10.064;2023-05-10T17:05:46;14.30;99.90
5394;DHT22;2720;52.396;10.064;2023-05-10T17:08:13;14.30;99.90
5394;DHT22;2720;52.396;10.064;2023-05-10T17:10:40;14.30;99.90
5394;DHT22;2720;52.396;10.064;2023-05-10T17:13:07;14.20;99.90
5394;DHT22;2720;52.396;10.064;2023-05-10T17:15:35;14.10;99.90
5394;DHT22;2720;52.396;10.064;2023-05-10T17:18:02;14.10;99.90
5394;DHT22;2720;52.396;10.064;2023-05-10T17:20:31;14.20;99.90
5394;DHT22;2720;52.396;10.064;2023-05-10T17:22:58;14.20;99.90
5394;DHT22;2720;52.396;10.064;2023-05-10T17:25:25;14.20;99.90
5394;DHT22;2720;52.396;10.064;2023-05-10T17:27:52;14.20;99.90
5394;DHT22;2720;52.396;10.064;2023-05-10T17:30:19;14.20;99.90
5394;DHT22;2720;52.396;10.064;2023-05-10T17:32:51;14.30;99.90
5394;DHT22;2720;52.396;10.064;2023-05-10T17:35:19;14.30;99.90
5394;DHT22;2720;52.396;10.064;2023-05-10T17:37:47;14.40;99.90
5394;DHT22;2720;52.396;10.064;2023-05-10T17:40:14;14.40;99.90
5394;DHT22;2720;52.396;10.064;2023-05-10T17:42:41;14.40;99.90
5394;DHT22;2720;52.396;10.064;2023-05-10T17:45:09;14.40;99.90
5394;DHT22;2720;52.396;10.064;2023-05-10T17:47:37;14.50;99.90
5394;DHT22;2720;52.396;10.064;2023-05-10T17:50:05;14.50;99.90
5394;DHT22;2720;52.396;10.064;2023-05-10T17:52:32;14.40;99.90
5394;DHT22;2720;52.396;10.064;2023-05-10T17:55:03;14.30;99.90
5394;DHT22;2720;52.396;10.064;2023-05-10T17:57:31;14.10;99.90
5394;DHT22;2720;52.396;10.064;2023-05-10T17:59:58;14.00;99.90
5394;DHT22;2720;52.396;10.064;2023-05-10T18:02:26;13.90;99.90
5394;DHT22;2720;52.396;10.064;2023-05-10T18:04:53;13.90;99.90
5394;DHT22;2720;52.396;10.064;2023-05-10T18:07:20;13.90;99.90
5394;DHT22;2720;52.396;10.064;2023-05-10T18:09:48;14.00;99.90
5394;DHT22;2720;52.396;10.064;2023-05-10T18:12:16;14.10;99.90
5394;DHT22;2720;52.396;10.064;2023-05-10T18:14:43;14.10;99.90
5394;DHT22;2720;52.396;10.064;2023-05-10T18:17:10;14.20;99.90
5394;DHT22;2720;52.396;10.064;2023-05-10T18:19:38;14.20;99.90
5394;DHT22;2720;52.396;10.064;2023-05-10T18:22:05;14.30;99.90
5394;DHT22;2720;52.396;10.064;2023-05-10T18:24:32;14.20;99.90
5394;DHT22;2720;52.396;10.064;2023-05-10T18:29:28;13.90;99.90
5394;DHT22;2720;52.396;10.064;2023-05-10T18:31:54;14.00;99.90
5394;DHT22;2720;52.396;10.064;2023-05-10T18:34:21;14.00;99.90
5394;DHT22;2720;52.396;10.064;2023-05-10T18:36:48;13.80;99.90
5394;DHT22;2720;52.396;10.064;2023-05-10T18:39:15;14.00;99.90
5394;DHT22;2720;52.396;10.064;2023-05-10T18:41:43;14.00;99.90
5394;DHT22;2720;52.396;10.064;2023-05-10T18:44:10;13.90;99.90
5394;DHT22;2720;52.396;10.064;2023-05-10T18:46:38;13.90;99.90
5394;DHT22;2720;52.396;10.064;2023-05-10T18:49:06;13.80;99.90
5394;DHT22;2720;52.396;10.064;2023-05-10T18:51:33;13.80;99.90
5394;DHT22;2720;52.396;10.064;2023-05-10T18:54:00;13.80;99.90
5394;DHT22;2720;52.396;10.064;2023-05-10T18:56:27;13.60;99.90
5394;DHT22;2720;52.396;10.064;2023-05-10T18:58:54;13.60;99.90
5394;DHT22;2720;52.396;10.064;2023-05-10T19:01:21;13.60;99.90
5394;DHT22;2720;52.396;10.064;2023-05-10T19:03:49;13.60;99.90
5394;DHT22;2720;52.396;10.064;2023-05-10T19:08:43;13.50;99.90
5394;DHT22;2720;52.396;10.064;2023-05-10T19:11:10;13.60;99.90
5394;DHT22;2720;52.396;10.064;2023-05-10T19:13:37;13.50;99.90
5394;DHT22;2720;52.396;10.064;2023-05-10T19:16:04;13.70;99.90
5394;DHT22;2720;52.396;10.064;2023-05-10T19:18:31;13.50;99.90
5394;DHT22;2720;52.396;10.064;2023-05-10T19:20:59;13.50;99.90
5394;DHT22;2720;52.396;10.064;2023-05-10T19:23:30;13.40;99.90
5394;DHT22;2720;52.396;10.064;2023-05-10T19:25:57;13.50;99.90